SEASEATTLE-TACOMA INTL
METARs for nearby airports:
N 0 432' KSEA 261053Z 03004KT 10SM CLR 12/09 A3023
NE 4 32' KRNT 261053Z 00000KT 10SM CLR 11/08 A3023
N 4 21' KBFI 261053Z 00000KT 10SM CLR 12/09 A3024
SW 15 294' KTIW 261053Z 00000KT 10SM CLR 09/08 A3023
W 18 444' KPWT 261056Z 00000KT 10SM CLR 08/07 A3024
S 19 322' KTCM 261058Z 00000KT 8SM CLR 06/06 A3023
S 20 537' KPLU 261115Z 00000KT 9SM -DZ FEW002 07/07 A3024
SW 24 300' KGRF 260958Z 12003KT 10SM CLR 06/06 A3023
N 27 607' KPAE 261053Z 34004KT 10SM CLR 11/09 A3024
W 36 272' KSHN 261053Z 00000KT 10SM CLR 05/03 A3022
SW 37 207' KOLM 261054Z 00000KT 9SM CLR 07/05 A3023
N 43 141' KAWO 261107Z 00000KT 1/2SM FG OVC001 07/07 A3025
SW 53 177' KCLS 261115Z 00000KT 10SM CLR 09/09 A3022
N 55 47' KNUW 261056Z 00000KT 7SM BCFG FEW010 SCT250 08/07 A3028
NW 60 13' KNOW 261110Z 16003KT 10SM CLR 11/08 A3025
N 61 145' KBVS 261115Z 00000KT 1/2SM FG VV005 09/09 A3024
NW 62 291' KCLM 261053Z 22004KT 10SM CLR 09/07 A3025
NW 70 112' KFHR 261053Z 00000KT 10SM CLR 07/06 A3025
SW 72 17' KHQM 261053Z 05005KT 9SM CLR 11/10 A3021
E 76 1763' KELN 261053Z 00000KT 10SM CLR 05/01 A3023
N 79 34' KORS 261115Z 32005KT 10SM OVC011 13/12 A3024
N 81 171' KBLI 261128Z 00000KT 9SM OVC005 08/06 A3024
S 83 20' KKLS 261056Z 00000KT 10SM CLR 12/09 A3020
NW 84 64' CYYJ 261100Z 24005KT 30SM FEW250 09/08 A3025
E 85 1248' KEAT 261055Z 31005KT 10SM CLR 11/04 A3022
SE 89 1098' KYKM 261053Z 29007KT 10SM CLR 04/02 A3023
W 95 193' KUIL 261053Z 00000KT 10SM CLR 07/06 A3023
TAFs for nearby airports:
N 0 432' KSEA TAF KSEA 261120Z 2612/2718 02006KT P6SM SKC
  FM261800 35010KT P6SM SCT250
  FM270600 03008KT P6SM SKC
N 4 21' KBFI TAF KBFI 261120Z 2612/2712 00000KT P6SM SKC
  FM261700 33006KT P6SM SCT250
  FM270400 VRB03KT P6SM SKC
W 18 444' KPWT TAF KPWT 261120Z 2612/2712 05008KT P6SM SKC
S 19 322' KTCM TAF KTCM 260500Z 2605/2711 VRB06KT 9999 SKC QNH3021INS
  BECMG 2616/2617 02009KT 9999 SKC QNH3012INS
  BECMG 2701/2702 03006KT 9999 SKC QNH3009INS TX22/2623Z TN07/2613Z
SW 24 300' KGRF TAF KGRF 260500Z 2605/2711 VRB06KT 9999 SKC QNH3021INS
  BECMG 2616/2617 02009KT 9999 SKC QNH3012INS
  BECMG 2701/2702 03006KT 9999 SKC QNH3009INS TX22/2623Z TN07/2613Z
N 27 607' KPAE TAF KPAE 261120Z 2612/2712 33003KT P6SM SKC
  TEMPO 2612/2616 3SM BR FEW001
  FM261800 33006KT P6SM SCT250
  FM270600 03006KT P6SM SKC
SW 37 207' KOLM TAF KOLM 261120Z 2612/2712 VRB03KT P6SM FEW002
  TEMPO 2612/2616 1SM BR SCT002
  FM261800 03006KT P6SM SKC
  FM270500 VRB03KT P6SM SKC
N 55 47' KNUW TAF KNUW 2607/2707 VRB06KT 9999 FEW100 BKN250 QNH3024INS
  FM261200 VRB06KT 9999 BCFG FEW005 SCT250 QNH3022INS
  TEMPO 2612/2618 1200 BR BKN005 BKN250
  FM261900 32007KT 9999 FEW250 QNH3014INS T07/2612Z T17/2622Z FS30020
NW 62 291' KCLM TAF KCLM 261120Z 2612/2712 VRB03KT P6SM SCT250
  FM261800 08006KT P6SM SCT250
  FM270500 25005KT P6SM SKC
SW 72 17' KHQM TAF KHQM 261120Z 2612/2712 06005KT P6SM SKC
  TEMPO 2614/2616 4SM BR
  FM261600 07005KT P6SM SKC
  FM262000 23009KT P6SM SKC
  FM270500 VRB03KT P6SM SKC
N 81 171' KBLI TAF KBLI 261120Z 2612/2712 VRB03KT 3SM BR FEW005
  TEMPO 2612/2616 1/2SM FG VV002
  FM261700 VRB05KT P6SM SCT250
  FM261900 25006KT P6SM SCT250
  FM270400 VRB03KT P6SM SKC
E 85 1248' KEAT TAF KEAT 261120Z 2612/2712 31005KT P6SM FEW250
  FM261900 11006KT P6SM FEW250
  FM270300 33006KT P6SM FEW250
SE 89 1098' KYKM TAF KYKM 261132Z 2612/2712 30008KT P6SM FEW250
  FM261900 VRB06KT P6SM FEW250
  FM270400 25007KT P6SM FEW250
  FM270800 30008KT P6SM FEW250
Area forecast:
000
FAUS46 KKCI 101945
FA6W  
SFOC FA 101945
SYNOPSIS AND VFR CLDS/WX
SYNOPSIS VALID UNTIL 111400
CLDS/WX VALID UNTIL 110800...OTLK VALID 110800-111400
WA OR CA AND CSTL WTRS
.
SEE AIRMET SIERRA FOR IFR CONDS AND MTN OBSCN.
TS IMPLY SEV OR GTR TURB SEV ICE LLWS AND IFR CONDS.
NON MSL HGTS DENOTED BY AGL OR CIG.
.
SYNOPSIS...UPR LVL TROF WAS LOCATED NR 130W. MOIST SWLY FLOW
EXTDS FROM PAC NW EWD INTO NRN ROCKIES. HIGH PRES RIDGE WAS OVR
MUCH OF THE REST OF THE AREA. BY 14Z...UPR LVL TROF WILL EXTD
FROM WA-OR SWD INTO CA.  ..STREIB..
.
WA CASCDS WWD
CSTL SXNS
CSTLN-INLAND...SCT-BKN025 BKN035-050 TOPS 120-140. ISOL -SHRA.
   OTLK...MVFR CIGS SHRA BR.
PUGET SOUND-INTR VLY...SCT-BKN020 BKN-OVC035-050 TOPS 160 BKN CI.
   WDLY SCT -SHRA. OTLK...MVFR CIGS SHRA.
CASCDS...BKN-OVC050-070 TOPS FL180. BKN CI ABV. WDLY SCT -SHRA.
   OTLK...MVFR CIGS SHRA.
.
WA E OF CASCDS
CNTRL WA...SCT140 OVC CI. BECMG 2302 SCT080 BKN120 LYRD FL240.
   OTLK...VFR.
ERN WA...SCT-BKN140-160 LYRD FL240. BECMG 0508 BKN080 OVC120
   LYRD FL240 ISOL -SHRA DVLPG. OTLK...VFR.
.
OR CASCDS WWD
CSTL SXNS
CSTLN-INLAND...SCT-BKN020 BKN-OVC035-050 TOPS FL180. WDLY SCT
   -SHRA. OTLK...MVFR CIGS SHRA.
WILLAMETTE VLY/SWRN INTR...SCT-BKN020 BKN-OVC035-050 TOPS FL180.
   WDLY SCT -SHRA. OTLK...MVFR CIGS SHRA.
CASCDS...SCT-BKN060 BKN-OVC080-100 TOPS FL180 ISOL -SHRA.
   OTLK...MVFR CIGS SHRA.
.
OR E OF CASCDS
CNTRL...SCT100-120 BKN150 LYRD FL240. OTLK...VFR.
ERN...SCT130-150 BKN CI. BECMG 0205 OVC120-140 LYRD FL240.
   OTLK...VFR.
.
NRN CA...STS-SAC-TVL LN NWD
CSTL SXNS...
   FOT NWD...SCT025 BKN CI ABV. BECMG 0205 SCT020 OVC050 TOPS
      160. ISOL -SHRA. OTLK...IFR CIGS.
   S OF FOT...SCT-BKN010 TOPS 030-040. OTLK...IFR CIGS.
REST OF AREA...SKC OCNL SCT CI. OCNL VYS 3-5SM FU HZ.
   OTLK...VFR.
SAC VLY...
   NRN AND CNTRL SXNS...SKC. OTLK...VFR.
   SRN SXNS...SKC. OCNL VIS 3-5SM FU HZ. OTLK...MVFR FU HZ.
SHASTA-SISKIYOUS-NERN CA...
NRN SIERRAS...SKC OCNL SCT CI. WINDS SLY G25KT. OTLK...VFR WIND.
.
CNTRL CA
CSTL SXNS...
   CSTLN...SKC OCNL SCT010. BECMG 0508 OCNL CIGS BKN-SCT010 TOPS
      020-030. OTLK...IFR CIGS.
   INLAND...SKC. OTLK...VFR BECMG 1114 IFR CIGS BR.
SAN JOAQUIN VLY...SKC. OTLK...VFR.
SRN SIERRAS..SKC. OTLK...VFR.
.
SRN CA..VBG-NID-60NNW BIH LN SWD
CSTL SXNS...
   CSTLN...
      EXTRM SRN SXNS...SKC. BECMG 0205 SCT010. BECMG 0508 CIGS
         BKN-OVC010 TOPS 030. OTLK...IFR CIGS.
      REST OF AREA...SKC. OTLK...VFR BECMG 0811 IFR CIGS BR.
   INLAND...SKC OCNL FEW CI. OTLK...VFR.
INTR MTNS-MOJAVE-SRN DESERTS...SKC OCNL FEW CI. OTLK...VFR.
.
CSTL WTRS
WA...SCT-BKN035-050 TOPS 100-120. ISOL -SHRA. OTLK...VFR.
OR...
NWRN HLF...SCT-BKN035-050 TOPS 100-120. ISOL -SHRA. OTLK...VFR.
SERN HLF...SCT-BKN025 BKN035-050 TOPS FL180 BKN CI ABV. WDLY SCT
   -SHRA. OTLK...MVFR CIGS SHRA.
CA...
NRN CA...
   FOT NWD...SCT025 BKN CI ABV. BECMG 0205 SCT020 OVC050 TOPS
      160. ISOL -SHRA. OTLK...IFR CIGS.
   S OF FOT...SCT-BKN010 TOPS 030-040. OTLK...IFR CIGS.
CNTRL CA...SCT-BKN010 TOPS 030-040. OTLK...IFR CIGS.
SRN CA...
   OUTER CSTL WTRS...CIGS BKN010-020 TOPS 030-050.
      OTLK...IFR CIGS.
   ADJ CSTL WTRS...SKC. OCNL AGL SCT010. OTLK...VFR BECMG 0811
      IFR CIGS BR.
.
THE AREA FORECAST WILL TERMINATE AT 2359Z ON 10 OCTOBER 2017. IN
PLACE OF THE AREA FORECAST...PLEASE SEE THE GRAPHICAL FORECAST AT
WWW.AVIATIONWEATHER.GOV/GFA. GRAPHICAL AND TEXT AIRMETS WILL
CONTINUE AS REGULARLY SCHEDULED.
....

Shortcut to this page: http://wxbay.com.

Data may contain errors.